Terminal Aerodrome Forecast
Issued by NWS

Home | Current Version | Previous Version | Text Only | Print | Product List | Glossary On
Versions: 1 2 3 4 5 6 7 8 9 10 11 12 13 14 15 16 17 18 19 20 21 22 23 24 25 26 27 28 29
618
FTUS41 KOKX 211723
TAFSWF
TAF
KSWF 211723Z 2118/2224 VRB03KT P6SM BKN150
     FM212100 20005KT P6SM FEW050 BKN150
     FM220300 VRB03KT P6SM SCT050 BKN080
     FM220800 VRB02KT P6SM VCSH SCT007 BKN015 PROB30 2212/2215 5SM
      -RA OVC015
     FM221600 23003KT P6SM SCT015 BKN025
     FM221800 23004KT P6SM OVC050
     FM222100 23004KT P6SM SCT250
      AMD NOT SKED=

USA.gov is the U.S. government's official web portal to all federal, state and local government web resources and services.